createdAt,value
2024-03-05T00:00:39.857Z,9.21
2024-03-05T00:03:06.781Z,9.18
2024-03-05T00:05:33.511Z,9.15
2024-03-05T00:08:00.580Z,9.13
2024-03-05T00:10:27.464Z,9.10
2024-03-05T00:12:54.480Z,9.07
2024-03-05T00:15:21.221Z,9.04
2024-03-05T00:17:47.897Z,9.08
2024-03-05T00:20:20.007Z,9.11
2024-03-05T00:22:51.860Z,9.15
2024-03-05T00:25:19.330Z,9.03
2024-03-05T00:27:46.712Z,9.04
2024-03-05T00:30:15.355Z,9.12
2024-03-05T00:32:42.653Z,9.18
2024-03-05T00:35:13.120Z,9.15
2024-03-05T00:37:40.040Z,9.15
2024-03-05T00:40:10.445Z,9.17
2024-03-05T00:42:37.886Z,9.27
2024-03-05T00:45:09.199Z,9.32
2024-03-05T00:47:37.398Z,9.31
2024-03-05T00:50:05.944Z,9.39
2024-03-05T00:52:33.409Z,9.35
2024-03-05T00:55:01.501Z,9.36
2024-03-05T00:57:28.889Z,9.41
2024-03-05T00:59:55.838Z,9.40
2024-03-05T01:02:23.970Z,9.45
2024-03-05T01:04:51.437Z,9.45
2024-03-05T01:07:18.745Z,9.47
2024-03-05T01:09:46.053Z,9.51
2024-03-05T01:12:12.817Z,9.58
2024-03-05T01:14:39.945Z,9.61
2024-03-05T01:17:07.018Z,9.62
2024-03-05T01:19:33.797Z,9.62
2024-03-05T01:22:01.056Z,9.63
2024-03-05T01:24:28.712Z,9.61
2024-03-05T01:26:55.409Z,9.65
2024-03-05T01:29:23.426Z,9.58
2024-03-05T01:31:57.803Z,8.72
2024-03-05T01:34:25.608Z,7.85
2024-03-05T01:36:59.301Z,7.97
2024-03-05T01:39:28.845Z,8.35
2024-03-05T01:41:56.556Z,8.66
2024-03-05T01:44:23.853Z,8.86
2024-03-05T01:46:57.540Z,9.05
2024-03-05T01:49:26.508Z,9.22
2024-03-05T01:51:56.039Z,9.32
2024-03-05T01:54:24.834Z,9.39
2024-03-05T01:56:56.109Z,9.49
2024-03-05T01:59:23.860Z,9.59
2024-03-05T02:01:52.003Z,9.70
2024-03-05T02:04:18.991Z,9.82
2024-03-05T02:06:47.510Z,9.83
2024-03-05T02:09:14.928Z,9.02
2024-03-05T02:11:52.854Z,8.10
2024-03-05T02:14:27.891Z,7.55
2024-03-05T02:16:59.325Z,7.99
2024-03-05T02:19:27.330Z,8.47
2024-03-05T02:22:04.848Z,8.78
2024-03-05T02:24:31.988Z,8.98
2024-03-05T02:27:03.285Z,9.10
2024-03-05T02:29:32.583Z,9.21
2024-03-05T02:31:59.645Z,9.21
2024-03-05T02:34:27.312Z,9.22
2024-03-05T02:36:54.192Z,9.31
2024-03-05T02:39:21.434Z,9.36
2024-03-05T02:41:51.033Z,9.43
2024-03-05T02:44:17.658Z,9.46
2024-03-05T02:46:44.307Z,9.56
2024-03-05T02:49:12.854Z,9.55
2024-03-05T02:51:39.513Z,9.57
2024-03-05T02:54:07.617Z,9.57
2024-03-05T02:56:34.980Z,9.62
2024-03-05T02:59:01.826Z,9.58
2024-03-05T03:01:28.828Z,9.53
2024-03-05T03:03:55.886Z,9.54
2024-03-05T03:06:23.494Z,9.58
2024-03-05T03:08:50.115Z,9.62
2024-03-05T03:11:20.231Z,9.59
2024-03-05T03:13:49.905Z,9.58
2024-03-05T03:17:12.603Z,9.56
2024-03-05T03:19:39.357Z,9.56
2024-03-05T03:22:06.248Z,9.59
2024-03-05T03:24:32.947Z,9.60
2024-03-05T03:26:59.886Z,9.63
2024-03-05T03:29:27.804Z,9.65
2024-03-05T03:31:56.537Z,9.62
2024-03-05T03:34:23.732Z,9.67
2024-03-05T03:36:50.566Z,9.65
2024-03-05T03:39:25.292Z,9.66
2024-03-05T03:41:54.763Z,9.71
2024-03-05T03:44:23.517Z,9.69
2024-03-05T03:46:51.706Z,9.61
2024-03-05T03:49:27.111Z,9.57
2024-03-05T03:51:55.298Z,9.67
2024-03-05T03:54:23.024Z,9.68
2024-03-05T03:56:50.308Z,9.70
2024-03-05T03:59:17.617Z,9.67
2024-03-05T04:01:53.210Z,9.70
2024-03-05T04:04:20.052Z,9.70
2024-03-05T04:06:47.738Z,9.75
2024-03-05T04:09:15.484Z,9.79
2024-03-05T04:11:43.684Z,9.82
2024-03-05T04:14:11.062Z,9.85
2024-03-05T04:16:41.961Z,9.91
2024-03-05T04:19:09.849Z,9.86
2024-03-05T04:21:43.624Z,9.85
2024-03-05T04:24:14.159Z,9.83
2024-03-05T04:26:42.745Z,9.85
2024-03-05T04:29:17.743Z,9.87
2024-03-05T04:31:50.694Z,9.87
2024-03-05T04:34:21.838Z,9.90
2024-03-05T04:36:55.531Z,9.83
2024-03-05T04:39:23.929Z,9.81
2024-03-05T04:41:50.785Z,9.80
2024-03-05T04:44:17.635Z,9.79
2024-03-05T04:46:44.273Z,9.79
2024-03-05T04:49:10.921Z,9.78
2024-03-05T04:51:38.303Z,9.70
2024-03-05T04:54:05.385Z,9.62
2024-03-05T04:56:32.500Z,9.61
2024-03-05T04:58:59.323Z,9.60
2024-03-05T05:01:26.312Z,9.58
2024-03-05T05:03:53.169Z,9.61
2024-03-05T05:06:19.840Z,9.63
2024-03-05T05:08:47.065Z,9.68
2024-03-05T05:11:13.900Z,9.73
2024-03-05T05:13:44.401Z,9.72
2024-03-05T05:16:12.799Z,9.79
2024-03-05T05:18:39.963Z,9.87
2024-03-05T05:21:08.831Z,9.87
2024-03-05T05:23:36.270Z,9.86
2024-03-05T05:26:03.424Z,9.88
2024-03-05T05:28:30.522Z,9.93
2024-03-05T05:30:57.278Z,9.94
2024-03-05T05:33:23.983Z,9.98
2024-03-05T05:35:51.446Z,9.95
2024-03-05T05:38:18.241Z,10.02
2024-03-05T05:40:44.926Z,10.05
2024-03-05T05:43:12.665Z,10.09
2024-03-05T05:45:39.438Z,10.03
2024-03-05T05:48:06.914Z,10.04
2024-03-05T05:50:33.661Z,10.10
2024-03-05T05:53:00.754Z,10.17
2024-03-05T05:55:28.390Z,10.21
2024-03-05T05:57:56.720Z,10.28
2024-03-05T06:00:40.242Z,10.36
2024-03-05T06:03:10.590Z,10.40
2024-03-05T06:05:39.311Z,10.41
2024-03-05T06:08:13.438Z,10.48
2024-03-05T06:10:43.103Z,10.60
2024-03-05T06:13:10.543Z,10.74
2024-03-05T06:15:39.878Z,10.86
2024-03-05T06:18:07.637Z,10.81
2024-03-05T06:20:34.537Z,10.09
2024-03-05T06:23:02.273Z,9.27
2024-03-05T06:25:29.428Z,8.78
2024-03-05T06:27:56.466Z,9.16
2024-03-05T06:30:24.223Z,9.70
2024-03-05T06:32:52.973Z,10.02
2024-03-05T06:35:23.796Z,10.25
2024-03-05T06:37:51.916Z,10.45
2024-03-05T06:40:25.061Z,10.58
2024-03-05T06:42:53.819Z,10.64
2024-03-05T06:45:29.068Z,10.70
2024-03-05T06:48:10.483Z,10.73
2024-03-05T06:50:45.029Z,10.73
2024-03-05T06:53:31.970Z,10.78
2024-03-05T06:56:18.026Z,10.82
2024-03-05T06:58:47.827Z,10.76
2024-03-05T07:01:16.145Z,9.97
2024-03-05T07:03:45.861Z,9.23
2024-03-05T07:06:14.555Z,9.40
2024-03-05T07:08:44.076Z,9.81
2024-03-05T07:11:12.578Z,10.09
2024-03-05T07:13:44.613Z,10.30
2024-03-05T07:16:17.790Z,10.53
2024-03-05T07:18:51.649Z,10.65
2024-03-05T07:21:21.590Z,10.76
2024-03-05T07:23:52.990Z,10.77
2024-03-05T07:39:32.786Z,10.14
2024-03-05T07:41:59.497Z,10.27
2024-03-05T07:44:26.152Z,10.49
2024-03-05T07:46:52.889Z,10.71
2024-03-05T07:49:19.906Z,10.93
2024-03-05T07:51:46.698Z,11.08
2024-03-05T07:54:14.335Z,11.16
2024-03-05T07:56:41.868Z,11.27
2024-03-05T07:59:08.724Z,11.28
2024-03-05T08:01:35.444Z,10.62
2024-03-05T08:04:02.449Z,9.76
2024-03-05T08:06:30.172Z,9.58
2024-03-05T08:08:57.085Z,10.03
2024-03-05T08:11:24.748Z,10.47
2024-03-05T08:13:52.358Z,10.84
2024-03-05T08:16:19.355Z,11.02
2024-03-05T08:18:47.301Z,11.20
2024-03-05T08:21:14.897Z,11.46
2024-03-05T08:23:41.854Z,11.44
2024-03-05T08:26:08.842Z,10.68
2024-03-05T08:28:35.952Z,9.91
2024-03-05T08:31:02.840Z,9.80
2024-03-05T08:33:29.583Z,10.35
2024-03-05T08:35:56.305Z,10.83
2024-03-05T08:38:22.957Z,11.13
2024-03-05T08:40:50.561Z,11.41
2024-03-05T08:43:17.416Z,11.57
2024-03-05T08:45:44.326Z,10.95
2024-03-05T08:48:11.347Z,10.15
2024-03-05T08:50:38.139Z,9.79
2024-03-05T08:53:06.086Z,10.25
2024-03-05T08:55:33.103Z,10.81
2024-03-05T08:58:01.861Z,11.06
2024-03-05T09:00:38.100Z,11.28
2024-03-05T09:03:10.812Z,11.13
2024-03-05T09:05:37.946Z,10.23
2024-03-05T09:08:06.634Z,9.54
2024-03-05T09:10:34.938Z,9.75
2024-03-05T09:13:02.002Z,10.23
2024-03-05T09:15:28.757Z,10.58
2024-03-05T09:17:55.667Z,10.81
2024-03-05T09:20:22.523Z,10.87
2024-03-05T09:22:49.417Z,11.00
2024-03-05T09:25:17.381Z,11.02
2024-03-05T09:27:46.488Z,11.08
2024-03-05T09:30:16.970Z,11.15
2024-03-05T09:32:45.627Z,11.24
2024-03-05T09:35:14.624Z,11.28
2024-03-05T09:37:48.477Z,11.25
2024-03-05T09:40:19.433Z,10.41
2024-03-05T09:42:47.725Z,9.63
2024-03-05T09:45:17.016Z,9.88
2024-03-05T09:47:45.008Z,10.32
2024-03-05T09:50:17.436Z,10.65
2024-03-05T09:52:48.816Z,10.89
2024-03-05T09:55:18.513Z,11.14
2024-03-05T09:57:49.629Z,11.39
2024-03-05T10:00:19.403Z,11.61
2024-03-05T10:02:49.239Z,11.29
2024-03-05T10:05:17.779Z,10.42
2024-03-05T10:07:47.470Z,9.83
2024-03-05T10:10:18.416Z,10.21
2024-03-05T10:12:45.267Z,10.72
2024-03-05T10:15:22.386Z,11.13
2024-03-05T10:17:52.288Z,11.35
2024-03-05T10:20:45.567Z,11.45
2024-03-05T10:23:12.632Z,11.23
2024-03-05T10:25:41.466Z,10.36
2024-03-05T10:28:10.188Z,9.76
2024-03-05T10:30:38.950Z,10.11
2024-03-05T10:33:11.681Z,10.59
2024-03-05T10:35:39.957Z,10.88
2024-03-05T10:38:11.208Z,11.07
2024-03-05T10:40:39.480Z,11.24
2024-03-05T10:43:10.746Z,11.38
2024-03-05T10:45:41.804Z,10.83
2024-03-05T10:48:12.162Z,10.02
2024-03-05T10:50:41.825Z,9.62
2024-03-05T10:53:09.788Z,10.10
2024-03-05T10:55:38.915Z,10.67
2024-03-05T10:58:13.702Z,11.17
2024-03-05T11:00:43.197Z,11.58
2024-03-05T11:03:11.840Z,11.77
2024-03-05T11:05:50.733Z,11.79
2024-03-05T11:08:25.496Z,11.08
2024-03-05T11:11:23.645Z,10.38
2024-03-05T11:13:52.859Z,10.08
2024-03-05T11:16:21.643Z,10.72
2024-03-05T11:18:48.592Z,11.12
2024-03-05T11:21:16.791Z,11.43
2024-03-05T11:23:52.417Z,11.72
2024-03-05T11:26:23.386Z,12.01
2024-03-05T11:28:53.194Z,12.08
2024-03-05T11:31:22.229Z,11.32
2024-03-05T11:34:10.561Z,10.49
2024-03-05T11:36:37.962Z,10.06
2024-03-05T11:39:19.238Z,10.56
2024-03-05T11:41:47.588Z,10.97
2024-03-05T11:44:36.537Z,11.38
2024-03-05T11:47:04.495Z,11.79
2024-03-05T11:49:32.577Z,12.07
2024-03-05T11:51:59.941Z,12.13
2024-03-05T11:54:26.623Z,11.51
2024-03-05T11:56:58.355Z,10.92
2024-03-05T11:59:35.737Z,10.51
2024-03-05T12:02:03.107Z,10.18
2024-03-05T12:04:30.709Z,10.10
2024-03-05T12:07:08.248Z,10.73
2024-03-05T12:09:40.578Z,11.45
2024-03-05T12:12:13.569Z,11.91
2024-03-05T12:14:53.154Z,12.05
2024-03-05T12:17:21.223Z,11.41
2024-03-05T12:20:08.974Z,10.74
2024-03-05T12:22:41.607Z,10.36
2024-03-05T12:25:09.673Z,10.88
2024-03-05T12:27:38.701Z,11.45
2024-03-05T12:30:07.579Z,11.94
2024-03-05T12:32:34.658Z,11.93
2024-03-05T12:35:01.612Z,11.21
2024-03-05T12:37:30.894Z,10.63
2024-03-05T12:40:01.336Z,10.43
2024-03-05T12:42:29.872Z,11.03
2024-03-05T12:45:18.585Z,11.68
2024-03-05T12:48:04.532Z,12.26
2024-03-05T12:50:31.726Z,12.50
2024-03-05T12:53:06.168Z,11.94
2024-03-05T12:55:36.201Z,11.25
2024-03-05T12:58:08.311Z,10.70
2024-03-05T13:00:35.799Z,10.44
2024-03-05T13:03:06.887Z,10.98
2024-03-05T13:05:34.613Z,11.61
2024-03-05T13:08:01.541Z,12.04
2024-03-05T13:10:44.918Z,12.36
2024-03-05T13:13:11.897Z,12.41
2024-03-05T13:15:39.065Z,11.72
2024-03-05T13:18:06.981Z,10.99
2024-03-05T13:20:34.427Z,10.60
2024-03-05T13:23:01.216Z,11.08
2024-03-05T13:25:30.034Z,11.66
2024-03-05T13:27:56.966Z,12.08
2024-03-05T13:30:24.196Z,12.35
2024-03-05T13:32:53.667Z,12.59
2024-03-05T13:35:20.537Z,12.58
2024-03-05T13:37:48.918Z,11.91
2024-03-05T13:40:20.403Z,11.19
2024-03-05T13:42:49.536Z,10.82
2024-03-05T13:45:19.995Z,11.31
2024-03-05T13:47:47.363Z,11.84
2024-03-05T13:50:17.413Z,12.20
2024-03-05T13:52:46.297Z,12.49
2024-03-05T13:55:15.094Z,12.72
2024-03-05T13:57:42.736Z,12.73
2024-03-05T14:00:15.246Z,12.10
2024-03-05T14:02:42.040Z,11.35
2024-03-05T14:05:12.301Z,10.91
2024-03-05T14:07:39.612Z,11.30
2024-03-05T14:10:06.716Z,11.84
2024-03-05T14:12:36.399Z,12.28
2024-03-05T14:15:09.826Z,12.56
2024-03-05T14:17:38.165Z,12.76
2024-03-05T14:20:08.772Z,12.74
2024-03-05T14:22:39.838Z,12.03
2024-03-05T14:25:08.171Z,11.22
2024-03-05T14:27:34.869Z,10.79
2024-03-05T14:30:01.631Z,11.23
2024-03-05T14:32:28.593Z,11.79
2024-03-05T14:34:58.698Z,12.21
2024-03-05T14:37:25.724Z,12.49
2024-03-05T14:39:55.314Z,12.71
2024-03-05T14:42:22.000Z,12.89
2024-03-05T14:44:48.755Z,12.97
2024-03-05T14:47:15.414Z,13.01
2024-03-05T14:49:43.523Z,13.05
2024-03-05T14:52:10.647Z,13.13
2024-03-05T14:54:37.349Z,13.09
2024-03-05T14:57:04.363Z,12.36
2024-03-05T14:59:31.006Z,11.52
2024-03-05T15:01:57.900Z,11.09
2024-03-05T15:04:27.982Z,11.46
2024-03-05T15:06:57.525Z,11.87
2024-03-05T15:09:24.186Z,12.19
2024-03-05T15:11:51.050Z,12.39
2024-03-05T15:14:17.808Z,12.54
2024-03-05T15:16:44.498Z,12.65
2024-03-05T15:19:11.204Z,12.73
2024-03-05T15:21:39.051Z,12.78
2024-03-05T15:24:06.105Z,12.76
2024-03-05T15:26:33.744Z,12.80
2024-03-05T15:29:00.526Z,12.83
2024-03-05T15:31:27.438Z,12.82
2024-03-05T15:33:54.758Z,12.85
2024-03-05T15:36:22.075Z,12.88
2024-03-05T15:38:48.796Z,12.90
2024-03-05T15:41:16.506Z,12.90
2024-03-05T15:43:43.578Z,12.97
2024-03-05T15:46:10.247Z,13.04
2024-03-05T15:48:36.938Z,13.11
2024-03-05T15:51:04.277Z,13.15
2024-03-05T15:53:31.359Z,13.20
2024-03-05T15:56:13.498Z,13.24
2024-03-05T15:58:43.557Z,13.27
2024-03-05T16:01:11.731Z,13.31
2024-03-05T16:03:57.486Z,13.38
2024-03-05T16:06:31.163Z,13.45
2024-03-05T16:08:58.945Z,13.57
2024-03-05T16:11:26.672Z,13.67
2024-03-05T16:13:53.605Z,13.72
2024-03-05T16:16:24.737Z,13.77
2024-03-05T16:18:51.990Z,13.79
2024-03-05T16:21:18.740Z,13.78
2024-03-05T16:23:47.071Z,13.79
2024-03-05T16:26:13.712Z,13.81
2024-03-05T16:28:41.420Z,13.82
2024-03-05T16:31:12.402Z,13.82
2024-03-05T16:33:42.243Z,13.76
2024-03-05T16:36:20.896Z,13.69
2024-03-05T16:38:47.533Z,13.63
2024-03-05T16:41:14.276Z,13.62
2024-03-05T16:43:41.174Z,13.62
2024-03-05T16:46:09.356Z,13.65
2024-03-05T16:48:36.044Z,13.69
2024-03-05T16:51:03.395Z,13.72
2024-03-05T16:53:30.624Z,13.71
2024-03-05T16:55:57.345Z,13.70
2024-03-05T16:58:24.948Z,13.70
2024-03-05T17:00:57.996Z,13.66
2024-03-05T17:03:29.912Z,13.64
2024-03-05T17:05:58.394Z,13.64
2024-03-05T17:08:26.593Z,13.64
2024-03-05T17:10:55.104Z,13.63
2024-03-05T17:13:27.452Z,13.62
2024-03-05T17:15:57.464Z,13.63
2024-03-05T17:18:24.988Z,13.61
2024-03-05T17:20:54.665Z,13.53
2024-03-05T17:23:25.835Z,13.58
2024-03-05T17:25:55.898Z,13.56
2024-03-05T17:28:23.028Z,13.56
2024-03-05T17:30:50.201Z,13.57
2024-03-05T17:33:17.174Z,13.54
2024-03-05T17:35:44.555Z,13.53
2024-03-05T17:38:13.913Z,13.48
2024-03-05T17:40:41.508Z,13.44
2024-03-05T17:43:08.688Z,13.40
2024-03-05T17:45:35.666Z,13.40
2024-03-05T17:48:07.074Z,13.40
2024-03-05T17:50:36.169Z,13.36
2024-03-05T17:53:07.209Z,13.33
2024-03-05T17:55:36.266Z,13.36
2024-03-05T17:58:05.587Z,13.39
2024-03-05T18:00:42.981Z,13.42
2024-03-05T18:03:12.256Z,13.42
2024-03-05T18:05:40.148Z,13.41
2024-03-05T18:08:07.513Z,13.40
2024-03-05T18:10:36.676Z,13.39
2024-03-05T18:13:05.989Z,13.36
2024-03-05T18:15:33.525Z,13.36
2024-03-05T18:18:01.101Z,13.40
2024-03-05T18:20:30.197Z,13.40
2024-03-05T18:23:00.916Z,13.39
2024-03-05T18:25:35.662Z,13.34
2024-03-05T18:28:05.269Z,13.29
2024-03-05T18:30:43.420Z,13.27
2024-03-05T18:33:12.800Z,13.24
2024-03-05T18:35:41.674Z,13.23
2024-03-05T18:40:41.203Z,13.21
2024-03-05T18:43:10.944Z,13.18
2024-03-05T18:45:38.427Z,13.16
2024-03-05T18:48:09.693Z,13.12
2024-03-05T18:50:37.357Z,13.09
2024-03-05T18:53:07.294Z,13.07
2024-03-05T18:55:37.252Z,13.03
2024-03-05T18:58:08.030Z,13.02
2024-03-05T19:00:37.540Z,13.01
2024-03-05T19:03:05.999Z,13.00
2024-03-05T19:05:34.470Z,13.02
2024-03-05T19:08:01.710Z,13.04
2024-03-05T19:10:28.629Z,13.05
2024-03-05T19:12:55.445Z,13.06
2024-03-05T19:15:23.751Z,13.07
2024-03-05T19:17:50.955Z,13.09
2024-03-05T19:20:18.125Z,13.09
2024-03-05T19:22:45.142Z,13.09
2024-03-05T19:25:13.046Z,13.09
2024-03-05T19:27:42.448Z,13.08
2024-03-05T19:30:17.340Z,13.05
2024-03-05T19:32:45.253Z,13.00
2024-03-05T19:35:15.328Z,12.98
2024-03-05T19:37:44.328Z,12.96
2024-03-05T19:40:17.941Z,12.97
2024-03-05T19:42:46.907Z,12.96
2024-03-05T19:45:14.979Z,12.97
2024-03-05T19:47:42.643Z,12.94
2024-03-05T19:50:14.739Z,12.92
2024-03-05T19:52:41.911Z,12.91
2024-03-05T19:55:09.576Z,12.88
2024-03-05T19:57:36.611Z,12.82
2024-03-05T20:00:12.942Z,12.80
2024-03-05T20:02:40.293Z,12.81
2024-03-05T20:05:07.582Z,12.74
2024-03-05T20:07:34.590Z,12.66
2024-03-05T20:10:02.671Z,12.59
2024-03-05T20:12:29.635Z,12.57
2024-03-05T20:14:56.442Z,12.55
2024-03-05T20:17:25.484Z,12.54
2024-03-05T20:19:54.122Z,12.51
2024-03-05T20:22:20.896Z,12.52
2024-03-05T20:24:48.600Z,12.54
2024-03-05T20:27:17.209Z,12.63
2024-03-05T20:29:44.005Z,12.71
2024-03-05T20:32:10.888Z,12.77
2024-03-05T20:34:45.796Z,12.79
2024-03-05T20:37:12.495Z,12.71
2024-03-05T20:39:39.205Z,12.80
2024-03-05T20:42:09.242Z,12.84
2024-03-05T20:44:35.946Z,12.80
2024-03-05T20:47:03.006Z,12.77
2024-03-05T20:49:29.840Z,12.78
2024-03-05T20:51:57.955Z,12.79
2024-03-05T20:54:25.440Z,12.81
2024-03-05T20:56:52.268Z,12.83
2024-03-05T20:59:19.946Z,12.79
2024-03-05T21:01:47.159Z,12.82
2024-03-05T21:04:13.958Z,12.81
2024-03-05T21:06:40.710Z,12.83
2024-03-05T21:09:08.822Z,12.88
2024-03-05T21:11:35.803Z,12.93
2024-03-05T21:14:04.156Z,12.97
2024-03-05T21:16:31.107Z,13.02
2024-03-05T21:18:58.203Z,13.09
2024-03-05T21:21:25.288Z,13.15
2024-03-05T21:23:51.994Z,13.16
2024-03-05T21:26:34.582Z,13.17
2024-03-05T21:29:06.216Z,13.16
2024-03-05T21:31:38.141Z,13.19
2024-03-05T21:34:07.669Z,13.22
2024-03-05T21:36:34.494Z,13.24
2024-03-05T21:39:01.794Z,13.29
2024-03-05T21:41:28.616Z,13.34
2024-03-05T21:43:55.374Z,13.35
2024-03-05T21:46:22.806Z,13.39
2024-03-05T21:48:49.576Z,13.41
2024-03-05T21:51:16.948Z,13.42
2024-03-05T21:53:43.894Z,13.43
2024-03-05T21:56:11.432Z,13.37
2024-03-05T21:58:43.322Z,13.34
2024-03-05T22:01:10.708Z,13.32
2024-03-05T22:03:37.539Z,13.35
2024-03-05T22:06:14.905Z,13.38
2024-03-05T22:08:45.818Z,13.35
2024-03-05T22:11:13.981Z,13.35
2024-03-05T22:13:40.849Z,13.33
2024-03-05T22:16:07.523Z,13.30
2024-03-05T22:18:34.275Z,13.27
2024-03-05T22:21:00.883Z,13.28
2024-03-05T22:23:27.612Z,13.30
2024-03-05T22:25:54.612Z,13.30
2024-03-05T22:28:22.161Z,13.33
2024-03-05T22:30:49.776Z,13.36
2024-03-05T22:33:16.490Z,13.36
2024-03-05T22:35:43.253Z,13.37
2024-03-05T22:38:11.143Z,13.39
2024-03-05T22:40:38.120Z,13.34
2024-03-05T22:43:06.491Z,13.29
2024-03-05T22:45:35.959Z,13.27
2024-03-05T22:48:02.664Z,13.27
2024-03-05T22:50:29.465Z,13.30
2024-03-05T22:52:56.134Z,13.34
2024-03-05T22:55:22.985Z,13.40
2024-03-05T22:57:50.064Z,13.48
2024-03-05T23:00:24.293Z,13.53
2024-03-05T23:02:55.079Z,13.56
2024-03-05T23:05:22.173Z,13.55
2024-03-05T23:07:49.426Z,13.55
2024-03-05T23:10:17.614Z,13.57
2024-03-05T23:12:45.298Z,13.55
2024-03-05T23:15:16.374Z,13.55
2024-03-05T23:17:44.435Z,13.49
2024-03-05T23:20:12.558Z,13.40
2024-03-05T23:22:40.468Z,13.33
2024-03-05T23:25:08.826Z,13.30
2024-03-05T23:27:36.672Z,13.31
2024-03-05T23:30:27.068Z,13.29
2024-03-05T23:32:55.849Z,13.22
2024-03-05T23:35:26.449Z,13.19
2024-03-05T23:37:54.700Z,13.16
2024-03-05T23:40:21.343Z,13.17
2024-03-05T23:42:48.075Z,13.16
2024-03-05T23:45:14.818Z,13.11
2024-03-05T23:47:42.136Z,13.07
2024-03-05T23:50:10.470Z,13.01
2024-03-05T23:52:37.959Z,12.94
2024-03-05T23:55:07.116Z,12.89
2024-03-05T23:57:34.080Z,12.87
